sensor_id;sensor_type;location;lat;lon;timestamp;temperature;humidity
22795;DHT22;11564;50.920;11.612;2023-04-24T00:00:04;9.30;99.90
22795;DHT22;11564;50.920;11.612;2023-04-24T00:02:35;9.20;99.90
22795;DHT22;11564;50.920;11.612;2023-04-24T00:05:04;9.30;99.90
22795;DHT22;11564;50.920;11.612;2023-04-24T00:07:29;9.30;99.90
22795;DHT22;11564;50.920;11.612;2023-04-24T00:09:55;9.40;99.90
22795;DHT22;11564;50.920;11.612;2023-04-24T00:12:21;9.40;99.90
22795;DHT22;11564;50.920;11.612;2023-04-24T00:14:47;9.50;99.90
22795;DHT22;11564;50.920;11.612;2023-04-24T00:17:13;9.50;99.90
22795;DHT22;11564;50.920;11.612;2023-04-24T00:19:38;9.50;99.90
22795;DHT22;11564;50.920;11.612;2023-04-24T00:22:04;9.50;99.90
22795;DHT22;11564;50.920;11.612;2023-04-24T00:24:30;9.50;99.90
22795;DHT22;11564;50.920;11.612;2023-04-24T00:26:56;9.60;99.90
22795;DHT22;11564;50.920;11.612;2023-04-24T00:29:22;9.60;99.90
22795;DHT22;11564;50.920;11.612;2023-04-24T00:31:47;9.70;99.90
22795;DHT22;11564;50.920;11.612;2023-04-24T00:34:13;9.90;99.90
22795;DHT22;11564;50.920;11.612;2023-04-24T00:36:39;10.10;99.90
22795;DHT22;11564;50.920;11.612;2023-04-24T00:39:05;10.20;99.90
22795;DHT22;11564;50.920;11.612;2023-04-24T00:41:34;10.20;99.90
22795;DHT22;11564;50.920;11.612;2023-04-24T00:44:00;10.10;99.90
22795;DHT22;11564;50.920;11.612;2023-04-24T00:46:25;10.00;99.90
22795;DHT22;11564;50.920;11.612;2023-04-24T00:48:51;10.10;99.90
22795;DHT22;11564;50.920;11.612;2023-04-24T00:51:17;10.10;99.90
22795;DHT22;11564;50.920;11.612;2023-04-24T00:53:43;10.10;99.90
22795;DHT22;11564;50.920;11.612;2023-04-24T00:56:09;10.20;99.90
22795;DHT22;11564;50.920;11.612;2023-04-24T00:58:35;10.40;99.90
22795;DHT22;11564;50.920;11.612;2023-04-24T01:01:02;10.40;99.90
22795;DHT22;11564;50.920;11.612;2023-04-24T01:03:29;10.30;99.90
22795;DHT22;11564;50.920;11.612;2023-04-24T01:05:58;10.40;99.90
22795;DHT22;11564;50.920;11.612;2023-04-24T01:08:24;10.40;99.90
22795;DHT22;11564;50.920;11.612;2023-04-24T01:10:52;10.40;99.90
22795;DHT22;11564;50.920;11.612;2023-04-24T01:13:18;10.50;99.90
22795;DHT22;11564;50.920;11.612;2023-04-24T01:15:45;10.60;99.90
22795;DHT22;11564;50.920;11.612;2023-04-24T01:18:10;10.40;99.90
22795;DHT22;11564;50.920;11.612;2023-04-24T01:20:38;10.40;99.90
22795;DHT22;11564;50.920;11.612;2023-04-24T01:23:06;10.50;99.90
22795;DHT22;11564;50.920;11.612;2023-04-24T01:25:32;10.60;99.90
22795;DHT22;11564;50.920;11.612;2023-04-24T01:27:58;10.70;99.90
22795;DHT22;11564;50.920;11.612;2023-04-24T01:30:25;10.70;99.90
22795;DHT22;11564;50.920;11.612;2023-04-24T01:32:51;10.70;99.90
22795;DHT22;11564;50.920;11.612;2023-04-24T01:35:17;10.60;99.90
22795;DHT22;11564;50.920;11.612;2023-04-24T01:37:43;10.60;99.90
22795;DHT22;11564;50.920;11.612;2023-04-24T01:40:09;10.50;99.90
22795;DHT22;11564;50.920;11.612;2023-04-24T01:42:35;10.50;99.90
22795;DHT22;11564;50.920;11.612;2023-04-24T01:45:03;10.50;99.90
22795;DHT22;11564;50.920;11.612;2023-04-24T01:47:30;10.50;99.90
22795;DHT22;11564;50.920;11.612;2023-04-24T01:49:56;10.60;99.90
22795;DHT22;11564;50.920;11.612;2023-04-24T01:52:22;10.50;99.90
22795;DHT22;11564;50.920;11.612;2023-04-24T01:54:48;10.50;99.90
22795;DHT22;11564;50.920;11.612;2023-04-24T01:57:14;10.40;99.90
22795;DHT22;11564;50.920;11.612;2023-04-24T01:59:40;10.40;99.90
22795;DHT22;11564;50.920;11.612;2023-04-24T02:02:06;10.50;99.90
22795;DHT22;11564;50.920;11.612;2023-04-24T02:04:32;10.40;99.90
22795;DHT22;11564;50.920;11.612;2023-04-24T02:06:57;10.50;99.90
22795;DHT22;11564;50.920;11.612;2023-04-24T02:09:23;10.50;99.90
22795;DHT22;11564;50.920;11.612;2023-04-24T02:11:48;10.40;99.90
22795;DHT22;11564;50.920;11.612;2023-04-24T02:14:14;10.40;99.90
22795;DHT22;11564;50.920;11.612;2023-04-24T02:16:40;10.50;99.90
22795;DHT22;11564;50.920;11.612;2023-04-24T02:19:05;10.40;99.90
22795;DHT22;11564;50.920;11.612;2023-04-24T02:21:31;10.50;99.90
22795;DHT22;11564;50.920;11.612;2023-04-24T02:23:57;10.60;99.90
22795;DHT22;11564;50.920;11.612;2023-04-24T02:26:23;10.50;99.90
22795;DHT22;11564;50.920;11.612;2023-04-24T02:28:48;10.40;99.90
22795;DHT22;11564;50.920;11.612;2023-04-24T02:31:14;10.50;99.90
22795;DHT22;11564;50.920;11.612;2023-04-24T02:33:40;10.50;99.90
22795;DHT22;11564;50.920;11.612;2023-04-24T02:36:06;10.50;99.90
22795;DHT22;11564;50.920;11.612;2023-04-24T02:38:31;10.60;99.90
22795;DHT22;11564;50.920;11.612;2023-04-24T02:40:57;10.50;99.90
22795;DHT22;11564;50.920;11.612;2023-04-24T02:43:23;10.50;99.90
22795;DHT22;11564;50.920;11.612;2023-04-24T02:45:49;10.40;99.90
22795;DHT22;11564;50.920;11.612;2023-04-24T02:48:14;10.40;99.90
22795;DHT22;11564;50.920;11.612;2023-04-24T02:50:40;10.30;99.90
22795;DHT22;11564;50.920;11.612;2023-04-24T02:53:06;10.20;99.90
22795;DHT22;11564;50.920;11.612;2023-04-24T02:55:32;10.00;99.90
22795;DHT22;11564;50.920;11.612;2023-04-24T02:57:57;9.90;99.90
22795;DHT22;11564;50.920;11.612;2023-04-24T03:00:23;9.80;99.90
22795;DHT22;11564;50.920;11.612;2023-04-24T03:02:49;9.70;99.90
22795;DHT22;11564;50.920;11.612;2023-04-24T03:05:15;9.60;99.90
22795;DHT22;11564;50.920;11.612;2023-04-24T03:07:41;9.60;99.90
22795;DHT22;11564;50.920;11.612;2023-04-24T03:10:07;9.50;99.90
22795;DHT22;11564;50.920;11.612;2023-04-24T03:12:33;9.50;99.90
22795;DHT22;11564;50.920;11.612;2023-04-24T03:14:58;9.40;99.90
22795;DHT22;11564;50.920;11.612;2023-04-24T03:17:24;9.40;99.90
22795;DHT22;11564;50.920;11.612;2023-04-24T03:19:50;9.30;99.90
22795;DHT22;11564;50.920;11.612;2023-04-24T03:22:16;9.30;99.90
22795;DHT22;11564;50.920;11.612;2023-04-24T03:24:41;9.30;99.90
22795;DHT22;11564;50.920;11.612;2023-04-24T03:27:07;9.30;99.90
22795;DHT22;11564;50.920;11.612;2023-04-24T03:29:34;9.30;99.90
22795;DHT22;11564;50.920;11.612;2023-04-24T03:31:59;9.40;99.90
22795;DHT22;11564;50.920;11.612;2023-04-24T03:34:25;9.40;99.90
22795;DHT22;11564;50.920;11.612;2023-04-24T03:36:51;9.40;99.90
22795;DHT22;11564;50.920;11.612;2023-04-24T03:39:18;9.30;99.90
22795;DHT22;11564;50.920;11.612;2023-04-24T03:41:43;9.30;99.90
22795;DHT22;11564;50.920;11.612;2023-04-24T03:44:09;9.20;99.90
22795;DHT22;11564;50.920;11.612;2023-04-24T03:46:34;9.20;99.90
22795;DHT22;11564;50.920;11.612;2023-04-24T03:49:00;9.10;99.90
22795;DHT22;11564;50.920;11.612;2023-04-24T03:51:26;9.10;99.90
22795;DHT22;11564;50.920;11.612;2023-04-24T03:53:53;9.10;99.90
22795;DHT22;11564;50.920;11.612;2023-04-24T03:56:19;9.00;99.90
22795;DHT22;11564;50.920;11.612;2023-04-24T03:58:45;9.00;99.90
22795;DHT22;11564;50.920;11.612;2023-04-24T04:01:11;9.00;99.90
22795;DHT22;11564;50.920;11.612;2023-04-24T04:03:37;9.00;99.90
22795;DHT22;11564;50.920;11.612;2023-04-24T04:06:03;8.90;99.90
22795;DHT22;11564;50.920;11.612;2023-04-24T04:08:28;8.90;99.90
22795;DHT22;11564;50.920;11.612;2023-04-24T04:10:54;8.80;99.90
22795;DHT22;11564;50.920;11.612;2023-04-24T04:13:20;8.80;99.90
22795;DHT22;11564;50.920;11.612;2023-04-24T04:15:45;8.80;99.90
22795;DHT22;11564;50.920;11.612;2023-04-24T04:18:11;8.80;99.90
22795;DHT22;11564;50.920;11.612;2023-04-24T04:20:37;8.80;99.90
22795;DHT22;11564;50.920;11.612;2023-04-24T04:23:02;8.80;99.90
22795;DHT22;11564;50.920;11.612;2023-04-24T04:25:28;8.80;99.90
22795;DHT22;11564;50.920;11.612;2023-04-24T04:27:54;8.90;99.90
22795;DHT22;11564;50.920;11.612;2023-04-24T04:30:20;8.90;99.90
22795;DHT22;11564;50.920;11.612;2023-04-24T04:32:46;8.90;99.90
22795;DHT22;11564;50.920;11.612;2023-04-24T04:35:12;9.00;99.90
22795;DHT22;11564;50.920;11.612;2023-04-24T04:37:37;9.00;99.90
22795;DHT22;11564;50.920;11.612;2023-04-24T04:40:04;9.10;99.90
22795;DHT22;11564;50.920;11.612;2023-04-24T04:42:32;9.20;99.90
22795;DHT22;11564;50.920;11.612;2023-04-24T04:45:00;9.20;99.90
22795;DHT22;11564;50.920;11.612;2023-04-24T04:47:26;9.30;99.90
22795;DHT22;11564;50.920;11.612;2023-04-24T04:49:54;9.30;99.90
22795;DHT22;11564;50.920;11.612;2023-04-24T04:52:20;9.30;99.90
22795;DHT22;11564;50.920;11.612;2023-04-24T04:54:50;9.40;99.90
22795;DHT22;11564;50.920;11.612;2023-04-24T04:57:15;9.50;99.90
22795;DHT22;11564;50.920;11.612;2023-04-24T04:59:41;9.60;99.90
22795;DHT22;11564;50.920;11.612;2023-04-24T05:02:07;9.80;99.90
22795;DHT22;11564;50.920;11.612;2023-04-24T05:04:32;9.90;99.90
22795;DHT22;11564;50.920;11.612;2023-04-24T05:06:58;10.10;99.90
22795;DHT22;11564;50.920;11.612;2023-04-24T05:09:24;10.20;99.90
22795;DHT22;11564;50.920;11.612;2023-04-24T05:11:52;10.40;99.90
22795;DHT22;11564;50.920;11.612;2023-04-24T05:14:18;10.50;99.90
22795;DHT22;11564;50.920;11.612;2023-04-24T05:16:44;10.70;99.90
22795;DHT22;11564;50.920;11.612;2023-04-24T05:19:10;10.70;99.90
22795;DHT22;11564;50.920;11.612;2023-04-24T05:21:37;10.80;99.90
22795;DHT22;11564;50.920;11.612;2023-04-24T05:24:04;10.90;99.90
22795;DHT22;11564;50.920;11.612;2023-04-24T05:26:31;10.90;99.90
22795;DHT22;11564;50.920;11.612;2023-04-24T05:28:57;11.00;99.90
22795;DHT22;11564;50.920;11.612;2023-04-24T05:31:22;11.10;99.90
22795;DHT22;11564;50.920;11.612;2023-04-24T05:33:48;11.10;99.90
22795;DHT22;11564;50.920;11.612;2023-04-24T05:36:13;11.20;99.90
22795;DHT22;11564;50.920;11.612;2023-04-24T05:38:40;11.10;99.90
22795;DHT22;11564;50.920;11.612;2023-04-24T05:41:05;11.20;99.90
22795;DHT22;11564;50.920;11.612;2023-04-24T05:43:31;11.30;99.90
22795;DHT22;11564;50.920;11.612;2023-04-24T05:45:56;11.40;99.90
22795;DHT22;11564;50.920;11.612;2023-04-24T05:48:22;11.40;99.90
22795;DHT22;11564;50.920;11.612;2023-04-24T05:50:48;11.60;99.90
22795;DHT22;11564;50.920;11.612;2023-04-24T05:53:13;11.60;99.90
22795;DHT22;11564;50.920;11.612;2023-04-24T05:55:39;11.80;99.90
22795;DHT22;11564;50.920;11.612;2023-04-24T05:58:05;11.90;99.90
22795;DHT22;11564;50.920;11.612;2023-04-24T06:00:31;11.90;99.90
22795;DHT22;11564;50.920;11.612;2023-04-24T06:02:57;12.00;99.90
22795;DHT22;11564;50.920;11.612;2023-04-24T06:05:24;12.10;99.90
22795;DHT22;11564;50.920;11.612;2023-04-24T06:07:50;12.30;99.90
22795;DHT22;11564;50.920;11.612;2023-04-24T06:10:16;12.40;99.90
22795;DHT22;11564;50.920;11.612;2023-04-24T06:12:41;12.50;99.90
22795;DHT22;11564;50.920;11.612;2023-04-24T06:15:07;12.60;99.90
22795;DHT22;11564;50.920;11.612;2023-04-24T06:17:33;12.60;99.90
22795;DHT22;11564;50.920;11.612;2023-04-24T06:19:58;12.70;99.90
22795;DHT22;11564;50.920;11.612;2023-04-24T06:22:24;12.60;99.90
22795;DHT22;11564;50.920;11.612;2023-04-24T06:24:50;12.70;99.90
22795;DHT22;11564;50.920;11.612;2023-04-24T06:27:15;12.70;99.90
22795;DHT22;11564;50.920;11.612;2023-04-24T06:29:41;12.80;99.90
22795;DHT22;11564;50.920;11.612;2023-04-24T06:32:07;12.90;99.90
22795;DHT22;11564;50.920;11.612;2023-04-24T06:34:33;12.90;99.90
22795;DHT22;11564;50.920;11.612;2023-04-24T06:37:00;12.80;99.90
22795;DHT22;11564;50.920;11.612;2023-04-24T06:39:25;12.90;99.90
22795;DHT22;11564;50.920;11.612;2023-04-24T06:41:51;12.80;99.90
22795;DHT22;11564;50.920;11.612;2023-04-24T06:44:16;13.00;99.90
22795;DHT22;11564;50.920;11.612;2023-04-24T06:46:42;13.10;99.90
22795;DHT22;11564;50.920;11.612;2023-04-24T06:49:08;13.30;99.90
22795;DHT22;11564;50.920;11.612;2023-04-24T06:51:33;13.20;99.90
22795;DHT22;11564;50.920;11.612;2023-04-24T06:53:59;13.20;99.90
22795;DHT22;11564;50.920;11.612;2023-04-24T06:56:26;12.80;99.90
22795;DHT22;11564;50.920;11.612;2023-04-24T06:58:51;13.00;99.90
22795;DHT22;11564;50.920;11.612;2023-04-24T07:01:17;12.90;99.90
22795;DHT22;11564;50.920;11.612;2023-04-24T07:03:43;13.00;99.90
22795;DHT22;11564;50.920;11.612;2023-04-24T07:06:09;13.10;99.90
22795;DHT22;11564;50.920;11.612;2023-04-24T07:08:36;12.90;99.90
22795;DHT22;11564;50.920;11.612;2023-04-24T07:11:02;12.80;99.90
22795;DHT22;11564;50.920;11.612;2023-04-24T07:13:28;13.00;99.90
22795;DHT22;11564;50.920;11.612;2023-04-24T07:15:54;12.90;99.90
22795;DHT22;11564;50.920;11.612;2023-04-24T07:18:21;13.00;99.90
22795;DHT22;11564;50.920;11.612;2023-04-24T07:20:47;13.30;99.90
22795;DHT22;11564;50.920;11.612;2023-04-24T07:23:13;13.40;99.90
22795;DHT22;11564;50.920;11.612;2023-04-24T07:25:39;13.50;99.90
22795;DHT22;11564;50.920;11.612;2023-04-24T07:28:05;13.80;99.90
22795;DHT22;11564;50.920;11.612;2023-04-24T07:30:31;14.10;99.90
22795;DHT22;11564;50.920;11.612;2023-04-24T07:32:58;14.30;99.90
22795;DHT22;11564;50.920;11.612;2023-04-24T07:35:24;14.30;99.90
22795;DHT22;11564;50.920;11.612;2023-04-24T07:37:52;14.20;99.90
22795;DHT22;11564;50.920;11.612;2023-04-24T07:40:18;14.20;99.90
22795;DHT22;11564;50.920;11.612;2023-04-24T07:42:44;14.10;99.90
22795;DHT22;11564;50.920;11.612;2023-04-24T07:45:09;14.30;99.90
22795;DHT22;11564;50.920;11.612;2023-04-24T07:47:35;14.50;99.90
22795;DHT22;11564;50.920;11.612;2023-04-24T07:50:02;14.30;99.90
22795;DHT22;11564;50.920;11.612;2023-04-24T07:52:28;14.20;99.90
22795;DHT22;11564;50.920;11.612;2023-04-24T07:54:54;14.20;99.90
22795;DHT22;11564;50.920;11.612;2023-04-24T07:57:24;14.10;99.90
22795;DHT22;11564;50.920;11.612;2023-04-24T07:59:50;14.20;99.90
22795;DHT22;11564;50.920;11.612;2023-04-24T08:02:16;13.70;99.90
22795;DHT22;11564;50.920;11.612;2023-04-24T08:04:41;13.70;99.90
22795;DHT22;11564;50.920;11.612;2023-04-24T08:07:07;13.80;99.90
22795;DHT22;11564;50.920;11.612;2023-04-24T08:09:33;13.90;99.90
22795;DHT22;11564;50.920;11.612;2023-04-24T08:11:59;13.70;99.90
22795;DHT22;11564;50.920;11.612;2023-04-24T08:14:25;13.90;99.90
22795;DHT22;11564;50.920;11.612;2023-04-24T08:16:52;13.80;99.90
22795;DHT22;11564;50.920;11.612;2023-04-24T08:19:17;13.90;99.90
22795;DHT22;11564;50.920;11.612;2023-04-24T08:21:43;14.10;99.90
22795;DHT22;11564;50.920;11.612;2023-04-24T08:24:08;14.40;99.90
22795;DHT22;11564;50.920;11.612;2023-04-24T08:26:34;14.50;99.90
22795;DHT22;11564;50.920;11.612;2023-04-24T08:29:00;15.00;99.90
22795;DHT22;11564;50.920;11.612;2023-04-24T08:31:25;15.10;99.90
22795;DHT22;11564;50.920;11.612;2023-04-24T08:33:51;14.60;99.90
22795;DHT22;11564;50.920;11.612;2023-04-24T08:36:17;14.60;99.90
22795;DHT22;11564;50.920;11.612;2023-04-24T08:38:43;14.60;99.90
22795;DHT22;11564;50.920;11.612;2023-04-24T08:41:09;14.50;99.90
22795;DHT22;11564;50.920;11.612;2023-04-24T08:43:35;14.40;99.90
22795;DHT22;11564;50.920;11.612;2023-04-24T08:46:04;14.20;99.90
22795;DHT22;11564;50.920;11.612;2023-04-24T08:48:30;14.00;99.90
22795;DHT22;11564;50.920;11.612;2023-04-24T08:50:58;14.20;99.90
22795;DHT22;11564;50.920;11.612;2023-04-24T08:53:25;14.10;99.90
22795;DHT22;11564;50.920;11.612;2023-04-24T08:55:51;14.00;99.90
22795;DHT22;11564;50.920;11.612;2023-04-24T08:58:18;14.10;99.90
22795;DHT22;11564;50.920;11.612;2023-04-24T09:00:44;14.10;99.90
22795;DHT22;11564;50.920;11.612;2023-04-24T09:03:15;13.90;99.90
22795;DHT22;11564;50.920;11.612;2023-04-24T09:05:46;14.20;99.90
22795;DHT22;11564;50.920;11.612;2023-04-24T09:08:13;14.50;99.90
22795;DHT22;11564;50.920;11.612;2023-04-24T09:10:39;14.30;99.90
22795;DHT22;11564;50.920;11.612;2023-04-24T09:13:05;14.20;99.90
22795;DHT22;11564;50.920;11.612;2023-04-24T09:15:31;14.20;99.90
22795;DHT22;11564;50.920;11.612;2023-04-24T09:17:57;14.20;99.90
22795;DHT22;11564;50.920;11.612;2023-04-24T09:20:23;14.50;99.90
22795;DHT22;11564;50.920;11.612;2023-04-24T09:22:53;14.70;99.10
22795;DHT22;11564;50.920;11.612;2023-04-24T09:25:20;14.50;98.30
22795;DHT22;11564;50.920;11.612;2023-04-24T09:27:46;14.30;98.20
22795;DHT22;11564;50.920;11.612;2023-04-24T09:30:12;14.30;97.80
22795;DHT22;11564;50.920;11.612;2023-04-24T09:32:38;14.10;96.30
22795;DHT22;11564;50.920;11.612;2023-04-24T09:35:06;14.20;96.30
22795;DHT22;11564;50.920;11.612;2023-04-24T09:37:36;14.20;96.10
22795;DHT22;11564;50.920;11.612;2023-04-24T09:40:16;14.20;96.10
22795;DHT22;11564;50.920;11.612;2023-04-24T09:42:53;14.30;95.80
22795;DHT22;11564;50.920;11.612;2023-04-24T09:45:19;14.40;95.30
22795;DHT22;11564;50.920;11.612;2023-04-24T09:47:45;14.40;95.20
22795;DHT22;11564;50.920;11.612;2023-04-24T09:50:13;14.30;96.00
22795;DHT22;11564;50.920;11.612;2023-04-24T09:52:44;14.40;95.90
22795;DHT22;11564;50.920;11.612;2023-04-24T09:55:20;14.70;95.80
22795;DHT22;11564;50.920;11.612;2023-04-24T09:57:49;14.60;95.70
22795;DHT22;11564;50.920;11.612;2023-04-24T10:00:25;14.50;95.80
22795;DHT22;11564;50.920;11.612;2023-04-24T10:03:02;14.40;96.00
22795;DHT22;11564;50.920;11.612;2023-04-24T10:05:33;14.40;96.10
22795;DHT22;11564;50.920;11.612;2023-04-24T10:08:10;14.40;95.90
22795;DHT22;11564;50.920;11.612;2023-04-24T10:10:41;14.50;94.70
22795;DHT22;11564;50.920;11.612;2023-04-24T10:13:08;14.40;93.40
22795;DHT22;11564;50.920;11.612;2023-04-24T10:15:34;14.40;93.70
22795;DHT22;11564;50.920;11.612;2023-04-24T10:18:00;14.50;93.70
22795;DHT22;11564;50.920;11.612;2023-04-24T10:20:28;14.30;94.60
22795;DHT22;11564;50.920;11.612;2023-04-24T10:22:56;14.50;94.40
22795;DHT22;11564;50.920;11.612;2023-04-24T10:25:30;14.70;93.50
22795;DHT22;11564;50.920;11.612;2023-04-24T10:27:58;14.60;93.60
22795;DHT22;11564;50.920;11.612;2023-04-24T10:30:30;14.50;91.30
22795;DHT22;11564;50.920;11.612;2023-04-24T10:32:56;14.60;91.70
22795;DHT22;11564;50.920;11.612;2023-04-24T10:35:22;14.50;92.00
22795;DHT22;11564;50.920;11.612;2023-04-24T10:37:55;14.20;91.30
22795;DHT22;11564;50.920;11.612;2023-04-24T10:40:40;14.40;91.70
22795;DHT22;11564;50.920;11.612;2023-04-24T10:43:06;14.60;92.60
22795;DHT22;11564;50.920;11.612;2023-04-24T10:45:34;14.70;91.50
22795;DHT22;11564;50.920;11.612;2023-04-24T10:48:02;14.70;91.10
22795;DHT22;11564;50.920;11.612;2023-04-24T10:50:34;14.60;91.30
22795;DHT22;11564;50.920;11.612;2023-04-24T10:53:11;14.30;91.40
22795;DHT22;11564;50.920;11.612;2023-04-24T10:55:49;14.30;92.30
22795;DHT22;11564;50.920;11.612;2023-04-24T10:58:16;14.70;91.70
22795;DHT22;11564;50.920;11.612;2023-04-24T11:00:43;14.70;91.40
22795;DHT22;11564;50.920;11.612;2023-04-24T11:03:28;14.70;91.20
22795;DHT22;11564;50.920;11.612;2023-04-24T11:08:32;14.70;90.30
22795;DHT22;11564;50.920;11.612;2023-04-24T11:16:31;14.90;86.10
22795;DHT22;11564;50.920;11.612;2023-04-24T11:22:04;14.50;86.80
22795;DHT22;11564;50.920;11.612;2023-04-24T11:32:33;14.50;88.90
22795;DHT22;11564;50.920;11.612;2023-04-24T11:35:01;14.80;89.80
22795;DHT22;11564;50.920;11.612;2023-04-24T11:37:38;15.10;88.40
22795;DHT22;11564;50.920;11.612;2023-04-24T11:40:11;15.50;90.10
22795;DHT22;11564;50.920;11.612;2023-04-24T11:42:39;15.50;89.60
22795;DHT22;11564;50.920;11.612;2023-04-24T11:45:10;15.50;88.30
22795;DHT22;11564;50.920;11.612;2023-04-24T11:47:35;15.30;86.10
22795;DHT22;11564;50.920;11.612;2023-04-24T11:50:02;15.50;83.60
22795;DHT22;11564;50.920;11.612;2023-04-24T11:52:29;15.60;83.80
22795;DHT22;11564;50.920;11.612;2023-04-24T11:54:56;15.90;83.30
22795;DHT22;11564;50.920;11.612;2023-04-24T11:57:23;15.70;81.50
22795;DHT22;11564;50.920;11.612;2023-04-24T11:59:49;15.80;82.10
22795;DHT22;11564;50.920;11.612;2023-04-24T12:02:22;16.00;81.50
22795;DHT22;11564;50.920;11.612;2023-04-24T12:04:48;15.60;81.60
22795;DHT22;11564;50.920;11.612;2023-04-24T12:07:13;15.50;81.00
22795;DHT22;11564;50.920;11.612;2023-04-24T12:09:47;15.60;81.10
22795;DHT22;11564;50.920;11.612;2023-04-24T12:12:14;15.70;80.10
22795;DHT22;11564;50.920;11.612;2023-04-24T12:14:53;15.70;80.80
22795;DHT22;11564;50.920;11.612;2023-04-24T12:17:31;15.40;80.70
22795;DHT22;11564;50.920;11.612;2023-04-24T12:19:58;15.50;80.00
22795;DHT22;11564;50.920;11.612;2023-04-24T12:22:24;15.20;80.70
22795;DHT22;11564;50.920;11.612;2023-04-24T12:25:06;15.60;82.00
22795;DHT22;11564;50.920;11.612;2023-04-24T12:27:35;16.40;82.00
22795;DHT22;11564;50.920;11.612;2023-04-24T12:30:05;16.00;80.60
22795;DHT22;11564;50.920;11.612;2023-04-24T12:32:31;16.00;80.60
22795;DHT22;11564;50.920;11.612;2023-04-24T12:34:57;16.30;81.30
22795;DHT22;11564;50.920;11.612;2023-04-24T12:37:31;16.30;81.90
22795;DHT22;11564;50.920;11.612;2023-04-24T12:40:11;15.80;82.10
22795;DHT22;11564;50.920;11.612;2023-04-24T12:42:43;15.70;81.60
22795;DHT22;11564;50.920;11.612;2023-04-24T12:45:08;15.50;82.30
22795;DHT22;11564;50.920;11.612;2023-04-24T12:47:35;15.20;82.00
22795;DHT22;11564;50.920;11.612;2023-04-24T12:50:02;15.20;83.80
22795;DHT22;11564;50.920;11.612;2023-04-24T12:52:29;15.70;83.60
22795;DHT22;11564;50.920;11.612;2023-04-24T12:54:59;16.00;83.70
22795;DHT22;11564;50.920;11.612;2023-04-24T12:57:27;16.30;81.40
22795;DHT22;11564;50.920;11.612;2023-04-24T12:59:54;16.00;81.70
22795;DHT22;11564;50.920;11.612;2023-04-24T13:02:22;16.00;81.60
22795;DHT22;11564;50.920;11.612;2023-04-24T13:04:48;16.40;82.10
22795;DHT22;11564;50.920;11.612;2023-04-24T13:07:14;16.50;82.40
22795;DHT22;11564;50.920;11.612;2023-04-24T13:09:41;17.80;78.50
22795;DHT22;11564;50.920;11.612;2023-04-24T13:12:07;17.90;75.80
22795;DHT22;11564;50.920;11.612;2023-04-24T13:14:33;16.40;79.10
22795;DHT22;11564;50.920;11.612;2023-04-24T13:16:59;15.60;79.90
22795;DHT22;11564;50.920;11.612;2023-04-24T13:19:25;15.00;81.50
22795;DHT22;11564;50.920;11.612;2023-04-24T13:21:52;14.90;83.20
22795;DHT22;11564;50.920;11.612;2023-04-24T13:24:18;14.40;82.60
22795;DHT22;11564;50.920;11.612;2023-04-24T13:26:44;14.60;84.00
22795;DHT22;11564;50.920;11.612;2023-04-24T13:29:10;14.60;84.40
22795;DHT22;11564;50.920;11.612;2023-04-24T13:31:35;14.40;84.30
22795;DHT22;11564;50.920;11.612;2023-04-24T13:34:02;14.20;85.30
22795;DHT22;11564;50.920;11.612;2023-04-24T13:36:28;14.10;85.40
22795;DHT22;11564;50.920;11.612;2023-04-24T13:38:54;14.00;85.70
22795;DHT22;11564;50.920;11.612;2023-04-24T13:41:20;13.90;86.00
22795;DHT22;11564;50.920;11.612;2023-04-24T13:43:45;13.80;86.90
22795;DHT22;11564;50.920;11.612;2023-04-24T13:46:11;13.50;90.30
22795;DHT22;11564;50.920;11.612;2023-04-24T13:48:37;13.20;90.60
22795;DHT22;11564;50.920;11.612;2023-04-24T13:51:02;12.90;94.00
22795;DHT22;11564;50.920;11.612;2023-04-24T13:53:28;12.60;96.00
22795;DHT22;11564;50.920;11.612;2023-04-24T13:55:54;12.30;96.00
22795;DHT22;11564;50.920;11.612;2023-04-24T13:58:20;13.90;94.70
22795;DHT22;11564;50.920;11.612;2023-04-24T14:00:46;17.20;90.50
22795;DHT22;11564;50.920;11.612;2023-04-24T14:03:12;19.10;85.50
22795;DHT22;11564;50.920;11.612;2023-04-24T14:05:38;20.90;81.00
22795;DHT22;11564;50.920;11.612;2023-04-24T14:08:04;22.70;75.90
22795;DHT22;11564;50.920;11.612;2023-04-24T14:10:29;22.70;73.80
22795;DHT22;11564;50.920;11.612;2023-04-24T14:12:55;20.50;71.60
22795;DHT22;11564;50.920;11.612;2023-04-24T14:15:21;21.50;73.30
22795;DHT22;11564;50.920;11.612;2023-04-24T14:17:47;22.10;70.40
22795;DHT22;11564;50.920;11.612;2023-04-24T14:20:14;21.80;70.60
22795;DHT22;11564;50.920;11.612;2023-04-24T14:22:39;22.40;69.50
22795;DHT22;11564;50.920;11.612;2023-04-24T14:25:06;22.90;69.30
22795;DHT22;11564;50.920;11.612;2023-04-24T14:27:32;23.40;66.90
22795;DHT22;11564;50.920;11.612;2023-04-24T14:29:57;21.50;67.10
22795;DHT22;11564;50.920;11.612;2023-04-24T14:32:23;21.80;71.00
22795;DHT22;11564;50.920;11.612;2023-04-24T14:34:49;22.10;66.00
22795;DHT22;11564;50.920;11.612;2023-04-24T14:37:15;21.20;69.80
22795;DHT22;11564;50.920;11.612;2023-04-24T14:39:40;20.10;68.80
22795;DHT22;11564;50.920;11.612;2023-04-24T14:42:06;19.10;71.90
22795;DHT22;11564;50.920;11.612;2023-04-24T14:44:32;19.80;72.10
22795;DHT22;11564;50.920;11.612;2023-04-24T14:46:58;20.40;71.70
22795;DHT22;11564;50.920;11.612;2023-04-24T14:49:24;18.50;74.40
22795;DHT22;11564;50.920;11.612;2023-04-24T14:51:50;18.20;75.40
22795;DHT22;11564;50.920;11.612;2023-04-24T14:54:15;18.10;74.70
22795;DHT22;11564;50.920;11.612;2023-04-24T14:56:41;18.00;75.20
22795;DHT22;11564;50.920;11.612;2023-04-24T14:59:08;18.50;74.00
22795;DHT22;11564;50.920;11.612;2023-04-24T15:01:33;17.30;76.10
22795;DHT22;11564;50.920;11.612;2023-04-24T15:03:59;15.60;78.10
22795;DHT22;11564;50.920;11.612;2023-04-24T15:06:25;15.30;79.10
22795;DHT22;11564;50.920;11.612;2023-04-24T15:08:51;16.40;79.10
22795;DHT22;11564;50.920;11.612;2023-04-24T15:11:17;16.70;77.20
22795;DHT22;11564;50.920;11.612;2023-04-24T15:13:43;15.90;78.30
22795;DHT22;11564;50.920;11.612;2023-04-24T15:16:10;14.70;81.40
22795;DHT22;11564;50.920;11.612;2023-04-24T15:18:36;14.40;81.70
22795;DHT22;11564;50.920;11.612;2023-04-24T15:21:02;13.70;84.10
22795;DHT22;11564;50.920;11.612;2023-04-24T15:23:27;15.30;82.50
22795;DHT22;11564;50.920;11.612;2023-04-24T15:25:53;15.70;81.80
22795;DHT22;11564;50.920;11.612;2023-04-24T15:28:25;16.30;80.70
22795;DHT22;11564;50.920;11.612;2023-04-24T15:30:51;15.70;80.40
22795;DHT22;11564;50.920;11.612;2023-04-24T15:33:17;15.50;81.30